Decoded Metar for LROP (BUCHAREST in ROMANIA) (IATA:OTP) | Meteo·Mobile Aviation Weather
aviador You're here:

LROP Decoded Metar

BUCHAREST in ROMANIA
Report Time2019-05-21 02:30:00
UTC Time2019-05-21 02:48:46
Flight Rules vfr VFR
Wind230° at 06 kt
W.Decomp.*RWY 26: 5.0 kt HW 3.4 kt LCW
Visibility8000 m
Phenomena:N/A
Clouds:N/A
CeilingNone
Temp12°C (ISA -2)
Dew Point12°C (100% RH)
AAT10.5°C
QNH1010 hPa
Density Alt318 ft
Elevation312 ft
Report Wrong Elevation
Raw Report
LROP 210230Z 23006KT 8000 NSC 12/12 Q1010 NOSIG=

Extra information for LROP:More info

Metar Taf Metar & Taf Last 4 Metars F.Rules Stats Wind Profile Meteogram Temp Stats Airport Information Weather charts Add Link Nearby VenuesMetar ALERT Operation Metar Decoded Social comments